KHNZ

Henderson-Oxford Airport

Oxford, North Carolina, USA
METAR KHNZ 182135Z AUTO 06004KT 10SM -RA SCT009 SCT020 SCT028 23/21 A2991 RMK AO2 T02270211
Observed Flight Rules
Aug-18 @ 21:35 UTC (19 minutes ago) Visual Flight Rules
Wind Visibility Clouds Conditions
60° at 4 knots 10 miles
  • Scattered at 900' AGL
  • Scattered at 2,000' AGL
  • Scattered at 2,800' AGL
  • Light Rain
Temperatures Readings
Current 23°C / 73°F
Dewpoint 21°C / 70°F
Humidity 89%
Altimeter 29.91" Hg
Pressure 1013 hPa
Elevation 161
METAR KHNZ 182135Z AUTO 06004KT 10SM -RA SCT009 SCT020 SCT028 23/21 A2991 RMK AO2 T02270211
Observed Flight Rules
Aug-18 @ 21:35 UTC
(19 minutes ago)
VFR
Wind Visibility
60° at 4 knots 10 miles
Clouds
  • Scattered at 900' AGL
  • Scattered at 2,000' AGL
  • Scattered at 2,800' AGL
Conditions
  • Light Rain
Temperature Dewpoint
23°C / 73°F 21°C / 70°F
Humidity Altimeter Pressure
89% 29.91" Hg 1013 hPa